Time;durP1;ratioP1;P1;durP2;ratioP2;P2;SDS_P1;SDS_P2;PMS_P1;PMS_P2;Temp;Humidity;BMP_temperature;BMP_pressure;BME280_temperature;BME280_humidity;BME280_pressure;Samples;Min_cycle;Max_cycle;Signal;HPM_P1;HPM_P2
2021/04/29 00:37:55;;;;;;;;;;;;;;;;;;;;;
2021/04/29 00:41:07;;;;;;;17.95;9.40;;;;;;;;;;4914722;29;20071;-89
2021/04/29 00:44:04;;;;;;;19.77;10.32;;;;;;;;;;4816931;29;20142;-90
2021/04/29 00:47:07;;;;;;;;;;;;;;;;;;;;;
2021/04/29 02:10:30;;;;;;;19.02;10.43;;;;;;;;;;4952835;28;20060;-91
2021/04/29 02:13:15;;;;;;;22.38;10.63;;;;;;;;;;4991616;28;20112;-91
2021/04/29 02:26:16;;;;;;;22.02;9.80;;;;;;;;;;5016326;28;20072;-91
2021/04/29 02:32:37;;;;;;;;;;;;;;;;;;;;;
2021/04/29 02:39:33;;;;;;;20.17;10.07;;;;;;;;;;4930028;29;20042;-90
2021/04/29 02:46:24;;;;;;;20.75;11.02;;;;;;;;;;4895149;29;20121;-91
2021/04/29 02:52:34;;;;;;;25.17;10.73;;;;;;;;;;4826175;29;20124;-92
2021/04/29 02:55:01;;;;;;;23.05;10.80;;;;;;;;;;4930665;28;20371;-92
2021/04/29 03:04:43;;;;;;;25.58;11.80;;;;;;;;;;4898964;29;20119;-92
2021/04/29 03:07:50;;;;;;;28.65;13.23;;;;;;;;;;4891569;29;20056;-91
2021/04/29 03:13:09;;;;;;;35.53;12.98;;;;;;;;;;5037816;28;20045;-79
2021/04/29 03:15:36;;;;;;;18.80;11.00;;;;;;;;;;5044029;28;20459;-79
2021/04/29 03:18:02;;;;;;;22.60;11.48;;;;;;;;;;5031269;28;20219;-79
2021/04/29 03:20:39;;;;;;;25.23;11.60;;;;;;;;;;4991231;28;20048;-79
2021/04/29 03:23:06;;;;;;;43.97;12.65;;;;;;;;;;4992828;28;20105;-79
2021/04/29 03:25:32;;;;;;;31.58;13.82;;;;;;;;;;4993106;28;20502;-79
2021/04/29 03:27:59;;;;;;;20.75;11.85;;;;;;;;;;4992394;28;20136;-79
2021/04/29 03:30:26;;;;;;;20.33;12.43;;;;;;;;;;4993843;28;20054;-79
2021/04/29 03:32:53;;;;;;;20.33;10.88;;;;;;;;;;5023411;28;20136;-79
2021/04/29 03:35:20;;;;;;;24.48;11.85;;;;;;;;;;5011531;28;20045;-79
2021/04/29 03:37:47;;;;;;;27.05;12.57;;;;;;;;;;5014795;28;20061;-79
2021/04/29 03:40:14;;;;;;;25.50;12.43;;;;;;;;;;5034622;28;20132;-79
2021/04/29 03:45:46;;;;;;;23.30;12.70;;;;;;;;;;5021876;28;20034;-78
2021/04/29 03:48:20;;;;;;;27.48;12.85;;;;;;;;;;5006085;28;20156;-79
2021/04/29 03:50:47;;;;;;;29.25;13.15;;;;;;;;;;5013008;28;20048;-79
2021/04/29 03:53:14;;;;;;;24.30;12.82;;;;;;;;;;5014320;28;20041;-78
2021/04/29 03:55:40;;;;;;;21.10;12.20;;;;;;;;;;5012547;28;20494;-78
2021/04/29 03:58:07;;;;;;;28.10;13.52;;;;;;;;;;5029372;28;20413;-79
2021/04/29 04:00:34;;;;;;;32.72;14.00;;;;;;;;;;5031154;28;20140;-79
2021/04/29 04:03:01;;;;;;;21.65;12.48;;;;;;;;;;5029752;28;20084;-78
2021/04/29 04:05:27;;;;;;;23.50;12.82;;;;;;;;;;5011707;28;20141;-79
2021/04/29 04:07:55;;;;;;;25.95;13.38;;;;;;;;;;5011968;28;20452;-79
2021/04/29 04:10:21;;;;;;;25.33;13.65;;;;;;;;;;5012841;28;20152;-79
2021/04/29 04:12:49;;;;;;;24.60;13.82;;;;;;;;;;5012230;28;20049;-79
2021/04/29 04:15:16;;;;;;;30.38;14.38;;;;;;;;;;5011760;28;20049;-79
2021/04/29 04:17:42;;;;;;;27.50;13.68;;;;;;;;;;5029247;28;20116;-78
2021/04/29 04:20:24;;;;;;;22.80;12.82;;;;;;;;;;5014282;28;20042;-78
2021/04/29 04:22:52;;;;;;;26.52;13.43;;;;;;;;;;5029130;28;20553;-78
2021/04/29 04:25:19;;;;;;;25.88;12.43;;;;;;;;;;5011586;28;20132;-78
2021/04/29 04:27:46;;;;;;;26.15;12.73;;;;;;;;;;5011178;28;20053;-78
2021/04/29 04:30:12;;;;;;;70.93;28.55;;;;;;;;;;5028803;28;20150;-78
2021/04/29 04:32:39;;;;;;;29.38;14.75;;;;;;;;;;5011211;28;20142;-78
2021/04/29 04:35:06;;;;;;;27.25;13.13;;;;;;;;;;5012715;28;20045;-78
2021/04/29 04:37:33;;;;;;;29.65;13.40;;;;;;;;;;5028608;28;20170;-79
2021/04/29 04:40:00;;;;;;;27.02;12.88;;;;;;;;;;5029159;28;20127;-78
2021/04/29 04:42:27;;;;;;;31.00;14.30;;;;;;;;;;5029357;28;20099;-77
2021/04/29 04:44:53;;;;;;;31.05;13.45;;;;;;;;;;5011700;28;20131;-78
2021/04/29 04:47:21;;;;;;;33.33;16.13;;;;;;;;;;5030000;28;20106;-78
2021/04/29 04:49:48;;;;;;;23.23;13.30;;;;;;;;;;5012727;28;20045;-81
2021/04/29 04:52:15;;;;;;;27.85;15.27;;;;;;;;;;5029443;28;20049;-80
2021/04/29 04:54:43;;;;;;;32.45;14.10;;;;;;;;;;5029776;28;20053;-81
2021/04/29 04:57:12;;;;;;;29.15;14.85;;;;;;;;;;5030013;28;20127;-81
2021/04/29 04:59:39;;;;;;;25.40;13.50;;;;;;;;;;5030168;28;20069;-83
2021/04/29 05:02:05;;;;;;;23.50;13.75;;;;;;;;;;5011802;28;20141;-81
2021/04/29 05:04:33;;;;;;;40.60;14.80;;;;;;;;;;5012429;28;20720;-80
2021/04/29 05:07:01;;;;;;;33.65;13.93;;;;;;;;;;5012516;28;20054;-80
2021/04/29 05:09:32;;;;;;;23.92;13.20;;;;;;;;;;5029988;28;20787;-82
2021/04/29 05:11:59;;;;;;;26.35;13.52;;;;;;;;;;5015333;28;20145;-80
2021/04/29 05:14:27;;;;;;;25.80;12.88;;;;;;;;;;5017373;28;20100;-84
2021/04/29 05:16:54;;;;;;;33.60;15.25;;;;;;;;;;5034414;28;20081;-84
2021/04/29 05:19:24;;;;;;;25.10;13.77;;;;;;;;;;5035123;28;20057;-86
2021/04/29 05:21:50;;;;;;;32.28;15.05;;;;;;;;;;5033808;28;20548;-85
2021/04/29 05:24:17;;;;;;;25.38;13.32;;;;;;;;;;5015545;28;20501;-83
2021/04/29 05:26:45;;;;;;;26.83;15.20;;;;;;;;;;5017797;28;20053;-83
2021/04/29 05:29:12;;;;;;;26.65;14.27;;;;;;;;;;5017966;28;20057;-80
2021/04/29 05:31:39;;;;;;;30.00;15.30;;;;;;;;;;5017392;28;20123;-83
2021/04/29 05:34:06;;;;;;;31.35;16.48;;;;;;;;;;5017062;28;20141;-82
2021/04/29 05:36:32;;;;;;;28.17;15.13;;;;;;;;;;5017099;28;20469;-82
2021/04/29 05:38:59;;;;;;;31.27;16.17;;;;;;;;;;5016931;28;20069;-81
2021/04/29 05:41:26;;;;;;;39.83;17.92;;;;;;;;;;5015277;28;20081;-80
2021/04/29 05:43:53;;;;;;;30.55;15.40;;;;;;;;;;5033929;28;20111;-81
2021/04/29 05:46:19;;;;;;;33.10;16.35;;;;;;;;;;5033635;28;20045;-81
2021/04/29 05:48:46;;;;;;;28.92;17.38;;;;;;;;;;5014891;28;20080;-80
2021/04/29 05:51:13;;;;;;;32.00;17.63;;;;;;;;;;5032199;28;20140;-80
2021/04/29 05:53:40;;;;;;;35.92;18.45;;;;;;;;;;5032746;28;20191;-79
2021/04/29 05:56:06;;;;;;;32.25;19.45;;;;;;;;;;5014698;28;20087;-79
2021/04/29 05:58:34;;;;;;;29.70;17.13;;;;;;;;;;5016363;28;20160;-79
2021/04/29 06:01:02;;;;;;;36.08;18.17;;;;;;;;;;5033283;28;20049;-79
2021/04/29 06:03:30;;;;;;;36.92;19.73;;;;;;;;;;5033216;28;20532;-79
2021/04/29 06:05:57;;;;;;;31.85;17.85;;;;;;;;;;5032911;28;20578;-79
2021/04/29 06:08:23;;;;;;;40.90;19.30;;;;;;;;;;5033302;28;20140;-79
2021/04/29 06:10:50;;;;;;;36.28;19.38;;;;;;;;;;5033510;28;20148;-79
2021/04/29 06:13:18;;;;;;;36.97;18.65;;;;;;;;;;5032807;28;20775;-78
2021/04/29 06:15:44;;;;;;;34.15;18.92;;;;;;;;;;5015069;28;20115;-79
2021/04/29 06:18:11;;;;;;;34.92;18.15;;;;;;;;;;5032548;28;20054;-79
2021/04/29 06:20:38;;;;;;;34.47;18.58;;;;;;;;;;5031901;28;20041;-79
2021/04/29 06:23:05;;;;;;;29.10;17.65;;;;;;;;;;5032300;28;20172;-79
2021/04/29 06:25:32;;;;;;;32.00;17.83;;;;;;;;;;5013730;28;20049;-79
2021/04/29 06:27:59;;;;;;;31.15;18.02;;;;;;;;;;5032962;28;20053;-79
2021/04/29 06:30:25;;;;;;;40.80;17.88;;;;;;;;;;5014636;28;20103;-79
2021/04/29 06:32:52;;;;;;;30.90;18.13;;;;;;;;;;5015319;28;20087;-79
2021/04/29 06:35:19;;;;;;;35.50;18.60;;;;;;;;;;5031773;28;20076;-80
2021/04/29 06:37:46;;;;;;;33.35;18.77;;;;;;;;;;5021871;28;20136;-79
2021/04/29 06:40:14;;;;;;;35.90;17.42;;;;;;;;;;5044404;28;20810;-79
2021/04/29 06:42:41;;;;;;;37.47;18.92;;;;;;;;;;5016353;28;20057;-79
2021/04/29 06:45:09;;;;;;;32.05;19.63;;;;;;;;;;5014895;28;20129;-79
2021/04/29 06:47:36;;;;;;;38.05;20.30;;;;;;;;;;5014861;28;20053;-79
2021/04/29 06:50:08;;;;;;;34.53;19.10;;;;;;;;;;5030890;28;20508;-81
2021/04/29 06:52:37;;;;;;;33.42;19.75;;;;;;;;;;5014711;28;20060;-80
2021/04/29 06:55:05;;;;;;;37.35;19.15;;;;;;;;;;5032259;28;20057;-79
2021/04/29 06:57:32;;;;;;;37.33;20.27;;;;;;;;;;5014541;28;20088;-79
2021/04/29 06:59:59;;;;;;;47.33;19.63;;;;;;;;;;5015374;28;20046;-78
2021/04/29 07:02:25;;;;;;;41.95;20.10;;;;;;;;;;5032540;28;20046;-78
2021/04/29 07:04:59;;;;;;;39.85;21.33;;;;;;;;;;5013913;28;20100;-78
2021/04/29 07:07:26;;;;;;;40.67;21.60;;;;;;;;;;5010917;28;20041;-78
2021/04/29 07:09:53;;;;;;;42.15;20.40;;;;;;;;;;5013843;28;20053;-78
2021/04/29 07:12:21;;;;;;;37.97;20.98;;;;;;;;;;5013277;28;20387;-78
2021/04/29 07:14:50;;;;;;;41.63;20.83;;;;;;;;;;5013733;28;20041;-78
2021/04/29 07:17:17;;;;;;;39.65;20.42;;;;;;;;;;5013380;28;20049;-78
2021/04/29 07:19:45;;;;;;;40.17;21.10;;;;;;;;;;5028542;28;20462;-78
2021/04/29 07:22:12;;;;;;;36.40;21.92;;;;;;;;;;5014016;28;20057;-78
2021/04/29 07:24:39;;;;;;;45.80;22.80;;;;;;;;;;5030801;28;20085;-78
2021/04/29 07:27:07;;;;;;;37.45;21.65;;;;;;;;;;5030612;28;20140;-79
2021/04/29 07:29:35;;;;;;;45.28;22.63;;;;;;;;;;5030239;28;20564;-78
2021/04/29 07:32:03;;;;;;;38.50;21.85;;;;;;;;;;5012726;28;20059;-78
2021/04/29 07:34:31;;;;;;;41.88;22.00;;;;;;;;;;5031001;28;20045;-79
2021/04/29 07:37:04;;;;;;;46.35;22.55;;;;;;;;;;5014543;28;20049;-79
2021/04/29 07:39:33;;;;;;;40.80;22.85;;;;;;;;;;5030798;28;20556;-79
2021/04/29 07:42:00;;;;;;;49.15;23.52;;;;;;;;;;5012685;28;20127;-78
2021/04/29 07:44:27;;;;;;;39.95;23.13;;;;;;;;;;5013134;28;20049;-78
2021/04/29 07:46:54;;;;;;;44.85;22.45;;;;;;;;;;5012501;28;20050;-79
2021/04/29 07:49:22;;;;;;;38.13;21.45;;;;;;;;;;5011457;28;20057;-78
2021/04/29 07:51:54;;;;;;;41.50;21.88;;;;;;;;;;5016163;28;20045;-79
2021/04/29 07:54:21;;;;;;;46.25;23.23;;;;;;;;;;5008911;28;20061;-79
2021/04/29 07:56:48;;;;;;;48.60;24.13;;;;;;;;;;5032011;28;20077;-78
2021/04/29 07:59:16;;;;;;;40.10;23.65;;;;;;;;;;5032747;28;20049;-78
2021/04/29 08:01:46;;;;;;;45.72;24.55;;;;;;;;;;5031144;28;20445;-79
2021/04/29 08:04:15;;;;;;;67.93;27.13;;;;;;;;;;5031206;28;20057;-79
2021/04/29 08:06:42;;;;;;;45.53;24.80;;;;;;;;;;5019159;28;20084;-79
2021/04/29 08:09:12;;;;;;;44.05;25.73;;;;;;;;;;5013592;28;20697;-80
2021/04/29 08:11:41;;;;;;;48.17;26.35;;;;;;;;;;5030789;28;20045;-79
2021/04/29 08:14:16;;;;;;;44.17;24.75;;;;;;;;;;5030769;28;20107;-81
2021/04/29 08:16:44;;;;;;;46.10;26.38;;;;;;;;;;5027646;28;20054;-81
2021/04/29 08:19:11;;;;;;;47.72;25.77;;;;;;;;;;5013702;28;20699;-80
2021/04/29 08:21:57;;;;;;;44.88;25.67;;;;;;;;;;5025425;28;20049;-81
2021/04/29 08:24:24;;;;;;;44.85;25.98;;;;;;;;;;5031634;28;20099;-82
2021/04/29 08:26:51;;;;;;;49.33;27.27;;;;;;;;;;5012774;28;20134;-78
2021/04/29 08:29:18;;;;;;;45.95;27.52;;;;;;;;;;5031542;28;20057;-81
2021/04/29 08:31:45;;;;;;;48.42;27.35;;;;;;;;;;5030691;28;20049;-80
2021/04/29 08:34:12;;;;;;;53.05;27.95;;;;;;;;;;5013072;28;20136;-79
2021/04/29 08:36:39;;;;;;;53.08;27.70;;;;;;;;;;5010693;28;20053;-81
2021/04/29 08:39:07;;;;;;;56.50;28.17;;;;;;;;;;5007945;28;20038;-81
2021/04/29 08:41:34;;;;;;;51.53;28.08;;;;;;;;;;5012239;28;20050;-82
2021/04/29 08:44:01;;;;;;;51.85;28.33;;;;;;;;;;5014800;28;20179;-84
2021/04/29 08:46:27;;;;;;;53.42;29.13;;;;;;;;;;5012224;28;20046;-82
2021/04/29 08:48:55;;;;;;;56.72;29.58;;;;;;;;;;5012206;28;20468;-80
2021/04/29 08:51:24;;;;;;;53.70;30.65;;;;;;;;;;5028146;28;20557;-80
2021/04/29 08:53:51;;;;;;;58.58;32.78;;;;;;;;;;5012563;28;20119;-80
2021/04/29 08:56:25;;;;;;;52.10;29.20;;;;;;;;;;5012679;28;20045;-81
2021/04/29 08:58:53;;;;;;;63.75;31.55;;;;;;;;;;5012855;28;20053;-81
2021/04/29 09:01:23;;;;;;;54.17;30.20;;;;;;;;;;5030115;28;20072;-81
2021/04/29 09:03:50;;;;;;;57.03;32.28;;;;;;;;;;5012903;28;20548;-81
2021/04/29 09:09:07;;;;;;;56.53;30.02;;;;;;;;;;5008690;28;20065;-79
2021/04/29 09:11:34;;;;;;;59.72;30.40;;;;;;;;;;4990722;28;20116;-79
2021/04/29 09:14:02;;;;;;;59.58;32.13;;;;;;;;;;5011335;28;20383;-79
2021/04/29 09:16:58;;;;;;;61.45;32.78;;;;;;;;;;5004912;28;20124;-80
2021/04/29 09:19:27;;;;;;;59.72;31.15;;;;;;;;;;4988149;28;20129;-79
2021/04/29 09:21:54;;;;;;;61.70;32.80;;;;;;;;;;5005410;28;20077;-79
2021/04/29 09:24:38;;;;;;;62.13;33.45;;;;;;;;;;4987553;28;20147;-79
2021/04/29 09:27:16;;;;;;;63.92;33.28;;;;;;;;;;5004738;28;20081;-79
2021/04/29 09:29:56;;;;;;;68.70;36.25;;;;;;;;;;4987756;28;20404;-79
2021/04/29 09:32:24;;;;;;;73.03;34.30;;;;;;;;;;5004116;28;20045;-79
2021/04/29 09:34:51;;;;;;;61.65;34.03;;;;;;;;;;4987043;28;20054;-79
2021/04/29 09:37:47;;;;;;;68.45;37.00;;;;;;;;;;5003913;28;20056;-79
2021/04/29 09:40:13;;;;;;;74.93;36.78;;;;;;;;;;4970765;28;20061;-78
2021/04/29 09:42:40;;;;;;;67.00;36.85;;;;;;;;;;5005153;28;20119;-79
2021/04/29 09:45:28;;;;;;;73.85;36.53;;;;;;;;;;4987490;28;20136;-79
2021/04/29 09:48:01;;;;;;;67.10;35.03;;;;;;;;;;4987130;28;20160;-78
2021/04/29 09:50:36;;;;;;;60.08;32.42;;;;;;;;;;5004988;28;20087;-79
2021/04/29 09:53:06;;;;;;;66.15;35.78;;;;;;;;;;4987525;28;20060;-79
2021/04/29 09:55:34;;;;;;;64.60;33.55;;;;;;;;;;5005463;28;20058;-79
2021/04/29 09:58:17;;;;;;;62.95;33.50;;;;;;;;;;4990314;28;20054;-79
2021/04/29 10:00:45;;;;;;;63.63;33.70;;;;;;;;;;5009658;28;20049;-80
2021/04/29 10:03:12;;;;;;;66.55;34.22;;;;;;;;;;5009139;28;20435;-78
2021/04/29 10:05:42;;;;;;;65.88;36.45;;;;;;;;;;5008525;28;20065;-79
2021/04/29 10:08:22;;;;;;;66.32;35.75;;;;;;;;;;4990143;28;20131;-78
2021/04/29 10:10:49;;;;;;;59.67;34.03;;;;;;;;;;5008618;28;20116;-79
2021/04/29 10:13:18;;;;;;;64.72;35.40;;;;;;;;;;5008171;28;20167;-78
2021/04/29 10:15:45;;;;;;;67.25;35.85;;;;;;;;;;5007555;28;20097;-79
2021/04/29 10:18:13;;;;;;;60.42;35.38;;;;;;;;;;5010517;28;20089;-80
2021/04/29 10:20:47;;;;;;;66.13;35.92;;;;;;;;;;5015591;28;20483;-80
2021/04/29 10:23:20;;;;;;;68.97;34.70;;;;;;;;;;4996170;28;20092;-81
2021/04/29 10:25:53;;;;;;;66.85;36.17;;;;;;;;;;4990729;28;20111;-81
2021/04/29 10:28:34;;;;;;;75.20;37.78;;;;;;;;;;4989937;28;20499;-81
2021/04/29 10:31:14;;;;;;;97.78;45.55;;;;;;;;;;4994528;28;20050;-81
2021/04/29 10:33:47;;;;;;;75.63;37.53;;;;;;;;;;5011536;28;20054;-80
2021/04/29 10:36:14;;;;;;;66.30;37.03;;;;;;;;;;4990128;28;20111;-82
2021/04/29 10:38:41;;;;;;;70.13;35.58;;;;;;;;;;5007141;28;20057;-82
2021/04/29 10:41:24;;;;;;;71.32;37.00;;;;;;;;;;4990173;28;20754;-81
2021/04/29 10:43:52;;;;;;;67.05;35.72;;;;;;;;;;5008024;28;20568;-80
2021/04/29 10:46:30;;;;;;;78.57;39.40;;;;;;;;;;4988895;28;20473;-80
2021/04/29 10:48:57;;;;;;;73.53;37.70;;;;;;;;;;4989583;28;20054;-80
2021/04/29 10:51:32;;;;;;;73.82;39.50;;;;;;;;;;4988384;28;20057;-81
2021/04/29 10:54:28;;;;;;;71.40;39.50;;;;;;;;;;4988845;28;20057;-81
2021/04/29 10:56:55;;;;;;;;;;;;;;;;;;4991042;28;20128;-81
2021/04/29 10:59:21;;;;;;;90.35;42.15;;;;;;;;;;4988675;28;20027;-80
2021/04/29 11:01:48;;;;;;;69.55;39.10;;;;;;;;;;4988170;28;20449;-79
2021/04/29 11:04:21;;;;;;;79.97;39.53;;;;;;;;;;4992987;28;20073;-80
2021/04/29 11:06:49;;;;;;;78.10;39.50;;;;;;;;;;4985546;28;20117;-81
2021/04/29 11:09:17;;;;;;;80.07;39.83;;;;;;;;;;4987276;28;20058;-81
2021/04/29 11:11:44;;;;;;;74.47;38.85;;;;;;;;;;4988247;28;20045;-81
2021/04/29 11:14:13;;;;;;;79.10;41.60;;;;;;;;;;4987662;28;20133;-80
2021/04/29 11:16:50;;;;;;;77.53;40.08;;;;;;;;;;4987621;28;20085;-81
2021/04/29 11:19:36;;;;;;;77.68;39.00;;;;;;;;;;5005998;28;20049;-80
2021/04/29 11:22:04;;;;;;;75.03;38.67;;;;;;;;;;4986950;28;20057;-79
2021/04/29 11:24:37;;;;;;;73.28;37.35;;;;;;;;;;5005179;28;20272;-80
2021/04/29 11:27:04;;;;;;;76.85;40.58;;;;;;;;;;5004961;28;20050;-80
2021/04/29 11:29:36;;;;;;;83.25;40.70;;;;;;;;;;4987165;28;20126;-80
2021/04/29 11:32:03;;;;;;;80.38;41.72;;;;;;;;;;4988531;28;20052;-80
2021/04/29 11:34:39;;;;;;;79.60;41.42;;;;;;;;;;4988997;28;20470;-80
2021/04/29 11:37:05;;;;;;;88.82;45.85;;;;;;;;;;5005245;28;20046;-80
2021/04/29 11:39:33;;;;;;;71.20;39.97;;;;;;;;;;5005748;28;20365;-80
2021/04/29 11:42:00;;;;;;;83.68;41.85;;;;;;;;;;5003882;28;20141;-79
2021/04/29 11:44:28;;;;;;;77.97;42.78;;;;;;;;;;4987394;28;20503;-80
2021/04/29 11:46:55;;;;;;;80.35;40.13;;;;;;;;;;5006818;28;20100;-79
2021/04/29 11:49:21;;;;;;;70.15;39.42;;;;;;;;;;4992814;28;20053;-80
2021/04/29 11:51:51;;;;;;;71.38;37.97;;;;;;;;;;4992371;28;20136;-80
2021/04/29 11:57:37;;;;;;;78.70;39.28;;;;;;;;;;5008516;28;20045;-80
2021/04/29 12:00:04;;;;;;;83.15;39.08;;;;;;;;;;5011158;28;20776;-80
2021/04/29 12:02:31;;;;;;;81.30;40.90;;;;;;;;;;5010976;28;20096;-80
2021/04/29 12:04:58;;;;;;;79.55;43.75;;;;;;;;;;5011195;28;20086;-80
2021/04/29 12:07:24;;;;;;;81.68;42.08;;;;;;;;;;5009713;28;20124;-79
2021/04/29 12:09:53;;;;;;;81.60;42.63;;;;;;;;;;5011502;28;20585;-79
2021/04/29 12:12:20;;;;;;;77.38;42.17;;;;;;;;;;5008869;28;20140;-77
2021/04/29 12:14:54;;;;;;;84.03;41.88;;;;;;;;;;5008953;28;20133;-77
2021/04/29 12:17:22;;;;;;;73.50;40.72;;;;;;;;;;5009436;28;20045;-80
2021/04/29 12:19:55;;;;;;;83.03;42.45;;;;;;;;;;5008097;28;20077;-81
2021/04/29 12:22:25;;;;;;;83.57;41.45;;;;;;;;;;5008413;28;20069;-81
2021/04/29 12:24:52;;;;;;;83.68;45.25;;;;;;;;;;5009167;28;20053;-75
2021/04/29 12:27:20;;;;;;;81.57;43.00;;;;;;;;;;5009713;28;20418;-75
2021/04/29 12:30:00;;;;;;;85.50;43.72;;;;;;;;;;5009327;28;20075;-77
2021/04/29 12:32:53;;;;;;;87.30;43.22;;;;;;;;;;5007868;28;20148;-76
2021/04/29 12:35:28;;;;;;;91.93;44.08;;;;;;;;;;5013473;28;20042;-77
2021/04/29 12:37:56;;;;;;;88.03;44.95;;;;;;;;;;5010044;28;20083;-81
2021/04/29 12:40:31;;;;;;;100.88;48.97;;;;;;;;;;5009072;28;20072;-77
2021/04/29 12:43:24;;;;;;;98.68;47.53;;;;;;;;;;5006552;28;20123;-78
2021/04/29 12:45:55;;;;;;;88.60;43.60;;;;;;;;;;4986195;28;20089;-78
2021/04/29 12:48:38;;;;;;;98.18;47.00;;;;;;;;;;5003956;28;20586;-80
2021/04/29 12:51:24;;;;;;;82.22;42.70;;;;;;;;;;5009137;28;20058;-79
2021/04/29 12:54:02;;;;;;;81.30;45.00;;;;;;;;;;5009434;28;20053;-81
2021/04/29 12:56:31;;;;;;;83.40;43.90;;;;;;;;;;5006980;28;20048;-80
2021/04/29 12:59:08;;;;;;;87.78;43.30;;;;;;;;;;5008132;28;20602;-80
2021/04/29 13:01:36;;;;;;;86.93;44.55;;;;;;;;;;5009988;28;20050;-80
2021/04/29 13:04:03;;;;;;;86.82;44.90;;;;;;;;;;5009065;28;20558;-78
2021/04/29 13:06:42;;;;;;;87.32;46.30;;;;;;;;;;5009008;28;20057;-79
2021/04/29 13:09:13;;;;;;;85.60;45.13;;;;;;;;;;5008967;28;20483;-81
2021/04/29 13:11:42;;;;;;;86.03;45.53;;;;;;;;;;5010634;28;20073;-81
2021/04/29 13:14:14;;;;;;;91.30;48.83;;;;;;;;;;5008464;28;20046;-79
2021/04/29 13:16:42;;;;;;;88.72;46.88;;;;;;;;;;5010081;28;20057;-84
2021/04/29 13:19:10;;;;;;;90.32;45.75;;;;;;;;;;5009832;28;20050;-82
2021/04/29 13:21:38;;;;;;;86.85;45.00;;;;;;;;;;5008911;28;20112;-81
2021/04/29 13:24:05;;;;;;;96.28;44.72;;;;;;;;;;5009277;28;20058;-79
2021/04/29 13:26:32;;;;;;;87.63;46.50;;;;;;;;;;5009678;28;20060;-79
2021/04/29 13:29:01;;;;;;;95.90;48.33;;;;;;;;;;5008647;28;20057;-79
2021/04/29 13:31:27;;;;;;;91.20;45.88;;;;;;;;;;5009841;28;20054;-78
2021/04/29 13:33:57;;;;;;;93.20;47.38;;;;;;;;;;5009936;28;20045;-79
2021/04/29 13:36:24;;;;;;;92.25;46.92;;;;;;;;;;5010323;28;20395;-78
2021/04/29 13:38:51;;;;;;;100.45;47.10;;;;;;;;;;5008335;28;20085;-78
2021/04/29 13:41:18;;;;;;;94.63;47.25;;;;;;;;;;5009194;28;20137;-78
2021/04/29 13:43:45;;;;;;;90.30;47.22;;;;;;;;;;5008737;28;20391;-78
2021/04/29 13:46:11;;;;;;;94.47;47.40;;;;;;;;;;5009390;28;20072;-78
2021/04/29 13:48:39;;;;;;;98.90;48.22;;;;;;;;;;5009714;28;20139;-78
2021/04/29 13:51:06;;;;;;;94.53;48.90;;;;;;;;;;5010419;28;20493;-78
2021/04/29 13:53:33;;;;;;;97.10;47.92;;;;;;;;;;5009812;28;20092;-78
2021/04/29 13:55:59;;;;;;;87.07;44.83;;;;;;;;;;5009362;28;20050;-78
2021/04/29 13:58:26;;;;;;;86.45;45.38;;;;;;;;;;5010138;28;20046;-79
2021/04/29 14:00:53;;;;;;;99.72;48.97;;;;;;;;;;5010458;28;20096;-78
2021/04/29 14:03:20;;;;;;;95.47;48.53;;;;;;;;;;5011183;28;20124;-79
2021/04/29 14:05:47;;;;;;;98.07;45.85;;;;;;;;;;5010358;28;20048;-79
2021/04/29 14:08:13;;;;;;;100.28;49.28;;;;;;;;;;5008907;28;20066;-78
2021/04/29 14:10:40;;;;;;;96.82;49.88;;;;;;;;;;5011095;28;20089;-78
2021/04/29 14:13:07;;;;;;;92.50;49.42;;;;;;;;;;5010899;28;20049;-78
2021/04/29 14:15:35;;;;;;;95.25;48.40;;;;;;;;;;5009740;28;20049;-78
2021/04/29 14:18:03;;;;;;;102.07;49.90;;;;;;;;;;5010653;28;20050;-78
2021/04/29 14:20:29;;;;;;;102.28;48.88;;;;;;;;;;5010546;28;20050;-83
2021/04/29 14:22:56;;;;;;;94.85;49.88;;;;;;;;;;5010435;28;20108;-79
2021/04/29 14:25:24;;;;;;;95.68;48.80;;;;;;;;;;5011512;28;20124;-79
2021/04/29 14:27:54;;;;;;;94.40;48.03;;;;;;;;;;5010216;28;20487;-78
2021/04/29 14:30:21;;;;;;;97.32;49.30;;;;;;;;;;5010398;28;20058;-81
2021/04/29 14:32:48;;;;;;;91.38;47.40;;;;;;;;;;5009161;28;20106;-76
2021/04/29 14:35:16;;;;;;;95.30;49.35;;;;;;;;;;5008451;28;20104;-76
2021/04/29 14:37:45;;;;;;;96.03;48.35;;;;;;;;;;5006290;28;20049;-79
2021/04/29 14:40:12;;;;;;;103.82;48.47;;;;;;;;;;5007127;28;20085;-77
2021/04/29 14:42:39;;;;;;;97.72;50.85;;;;;;;;;;5008492;28;20534;-81
2021/04/29 14:45:06;;;;;;;98.03;48.55;;;;;;;;;;5005428;28;20546;-80
2021/04/29 14:47:35;;;;;;;90.47;47.25;;;;;;;;;;5004845;28;20061;-78
2021/04/29 14:50:03;;;;;;;100.25;50.42;;;;;;;;;;5006722;28;20080;-78
2021/04/29 14:52:29;;;;;;;94.28;49.35;;;;;;;;;;5004862;28;20085;-80
2021/04/29 14:54:56;;;;;;;99.95;49.60;;;;;;;;;;5006669;28;20050;-78
2021/04/29 14:57:23;;;;;;;106.20;51.95;;;;;;;;;;5006820;28;20049;-80
2021/04/29 14:59:51;;;;;;;103.03;50.95;;;;;;;;;;5008909;28;20065;-80
2021/04/29 15:02:20;;;;;;;93.95;49.90;;;;;;;;;;5011221;28;20052;-78
2021/04/29 15:04:49;;;;;;;100.45;49.70;;;;;;;;;;5009834;28;20046;-77
2021/04/29 15:07:17;;;;;;;99.88;49.55;;;;;;;;;;5009756;28;20046;-79
2021/04/29 15:09:44;;;;;;;94.50;49.83;;;;;;;;;;5010285;28;20100;-77
2021/04/29 15:12:11;;;;;;;101.55;49.95;;;;;;;;;;5008002;28;20884;-76
2021/04/29 15:14:37;;;;;;;102.65;50.47;;;8.80;99.90;;;;;;5009365;28;20077;-78
2021/04/29 15:17:04;;;;;;;102.70;49.60;;;8.80;99.90;;;;;;4992778;28;20046;-81
2021/04/29 15:19:34;;;;;;;97.15;48.67;;;8.70;99.90;;;;;;5010560;28;20602;-77
2021/04/29 15:22:01;;;;;;;96.45;48.28;;;8.50;99.90;;;;;;4992975;28;20668;-77
2021/04/29 15:24:28;;;;;;;104.60;50.80;;;8.50;99.90;;;;;;4992585;28;20053;-78
2021/04/29 15:26:54;;;;;;;107.47;50.83;;;8.50;99.90;;;;;;5009850;28;20053;-78
2021/04/29 15:29:21;;;;;;;106.53;52.55;;;8.40;99.90;;;;;;5010660;28;20254;-79
2021/04/29 15:31:48;;;;;;;106.53;51.33;;;8.30;99.90;;;;;;4992370;28;20112;-78
2021/04/29 15:34:14;;;;;;;103.90;51.38;;;8.30;99.90;;;;;;4993093;28;20073;-76
2021/04/29 15:36:40;;;;;;;109.70;52.45;;;8.40;99.90;;;;;;5009216;28;20085;-76
2021/04/29 15:39:09;;;;;;;114.22;55.47;;;8.40;99.90;;;;;;5008350;28;20065;-78
2021/04/29 15:41:37;;;;;;;116.18;54.03;;;8.30;99.90;;;;;;4992458;28;20046;-78
2021/04/29 15:44:03;;;;;;;114.68;55.90;;;8.30;99.90;;;;;;5009361;28;20041;-78
2021/04/29 15:46:31;;;;;;;123.53;55.58;;;8.30;99.90;;;;;;5009514;28;20135;-78
2021/04/29 15:48:58;;;;;;;123.10;56.60;;;8.40;99.90;;;;;;4993126;28;20084;-77
2021/04/29 15:51:24;;;;;;;119.05;54.78;;;8.30;99.90;;;;;;5010862;28;20094;-76
2021/04/29 15:53:50;;;;;;;121.10;56.22;;;8.40;99.90;;;;;;5007753;28;20054;-78
2021/04/29 15:56:18;;;;;;;123.80;57.13;;;8.40;99.90;;;;;;5008551;28;20052;-78
2021/04/29 15:58:44;;;;;;;124.43;58.83;;;8.40;99.90;;;;;;5009051;28;20471;-77
2021/04/29 16:01:11;;;;;;;119.63;57.65;;;8.50;99.90;;;;;;4991034;28;20887;-78
2021/04/29 16:03:38;;;;;;;120.63;56.63;;;8.40;99.90;;;;;;4994211;28;20537;-79
2021/04/29 16:06:07;;;;;;;124.95;57.85;;;8.40;99.90;;;;;;4995133;28;20108;-79
2021/04/29 16:08:37;;;;;;;125.70;58.00;;;8.40;99.90;;;;;;4992249;28;20111;-78
2021/04/29 16:11:03;;;;;;;128.60;58.25;;;8.30;99.90;;;;;;4990480;28;20058;-79
2021/04/29 16:13:30;;;;;;;123.55;56.55;;;8.30;99.90;;;;;;5006409;28;20056;-78
2021/04/29 16:15:56;;;;;;;129.30;58.42;;;8.20;99.90;;;;;;4989764;28;20052;-78
2021/04/29 16:18:24;;;;;;;122.95;58.45;;;8.30;99.90;;;;;;4991107;28;20084;-79
2021/04/29 16:20:51;;;;;;;131.20;61.85;;;8.30;99.90;;;;;;4990562;28;20494;-78
2021/04/29 16:23:18;;;;;;;120.68;58.53;;;8.30;99.90;;;;;;5006982;28;20067;-78
2021/04/29 16:25:45;;;;;;;125.53;57.97;;;8.20;99.90;;;;;;5008204;28;20064;-78
2021/04/29 16:28:11;;;;;;;122.90;58.42;;;8.20;99.90;;;;;;4988924;28;20097;-78
2021/04/29 16:30:39;;;;;;;128.10;60.40;;;8.20;99.90;;;;;;5007374;28;20050;-77
2021/04/29 16:33:07;;;;;;;133.10;59.70;;;8.20;99.90;;;;;;4989872;28;20050;-77
2021/04/29 16:35:34;;;;;;;130.98;59.10;;;8.20;99.90;;;;;;5006547;28;20107;-77
2021/04/29 16:38:00;;;;;;;123.15;59.65;;;8.20;99.90;;;;;;5006627;28;20679;-77
2021/04/29 16:40:26;;;;;;;131.00;60.50;;;8.20;99.90;;;;;;4989629;28;20136;-79
2021/04/29 16:42:55;;;;;;;130.30;60.58;;;8.20;99.90;;;;;;5008426;28;20455;-78
2021/04/29 16:45:23;;;;;;;122.13;56.65;;;8.30;99.90;;;;;;4990565;28;20052;-78
2021/04/29 16:47:51;;;;;;;124.13;56.92;;;8.30;99.90;;;;;;5006625;28;20537;-78
2021/04/29 16:50:18;;;;;;;114.55;54.33;;;8.30;99.90;;;;;;4990150;28;20062;-78
2021/04/29 16:52:44;;;;;;;109.90;50.65;;;8.30;99.90;;;;;;4989226;28;20116;-78
2021/04/29 16:55:13;;;;;;;105.47;50.28;;;8.20;99.90;;;;;;5007705;28;20487;-78
2021/04/29 16:57:41;;;;;;;110.25;50.20;;;8.10;99.90;;;;;;5006646;28;20104;-78
2021/04/29 17:00:17;;;;;;;99.95;48.92;;;8.10;99.90;;;;;;4990303;28;20809;-78